Time;durP1;ratioP1;P1;durP2;ratioP2;P2;SDS_P1;SDS_P2;PMS_P1;PMS_P2;Temp;Humidity;BMP_temperature;BMP_pressure;BME280_temperature;BME280_humidity;BME280_pressure;Samples;Min_cycle;Max_cycle;Signal;HPM_P1;HPM_P2
2021/01/11 00:01:46;;;;;;;32.20;21.50;;;-2.20;99.90;;;-4.04;100.00;101035.41;5027107;27;100790;-61
2021/01/11 00:04:12;;;;;;;36.63;21.93;;;-2.30;99.90;;;-3.97;100.00;101040.44;5026347;27;100717;-61
2021/01/11 00:06:40;;;;;;;33.63;20.93;;;-2.40;99.90;;;-3.99;100.00;101038.72;5026905;27;100339;-61
2021/01/11 00:09:08;;;;;;;32.13;20.43;;;-2.30;99.90;;;-3.95;100.00;101033.38;5027482;27;100114;-62
2021/01/11 00:11:35;;;;;;;33.77;19.93;;;-2.20;99.90;;;-3.89;100.00;101041.03;5026787;27;100944;-61
2021/01/11 00:14:03;;;;;;;35.97;21.80;;;-2.20;99.90;;;-3.92;100.00;101041.13;5028204;27;100863;-61
2021/01/11 00:16:30;;;;;;;31.57;21.20;;;-2.20;99.90;;;-3.93;100.00;101042.91;5027523;27;100238;-61
2021/01/11 00:18:56;;;;;;;32.27;19.40;;;-2.30;99.90;;;-3.92;100.00;101038.53;5027620;27;99882;-61
2021/01/11 00:21:23;;;;;;;33.77;21.07;;;-2.30;99.90;;;-4.04;100.00;101038.00;5027018;27;101442;-60
2021/01/11 00:23:50;;;;;;;32.30;21.67;;;-2.30;99.90;;;-3.99;100.00;101037.88;5026723;27;100508;-61
2021/01/11 00:26:17;;;;;;;31.47;20.03;;;-2.30;99.90;;;-4.02;100.00;101036.22;5026526;27;100258;-61
2021/01/11 00:28:44;;;;;;;33.30;21.33;;;-2.20;99.90;;;-3.93;100.00;101042.91;5027097;27;100311;-60
2021/01/11 00:31:11;;;;;;;33.47;21.67;;;-2.30;99.90;;;-4.05;100.00;101036.28;5026211;27;101935;-61
2021/01/11 00:33:38;;;;;;;34.27;21.77;;;-2.30;99.90;;;-4.09;100.00;101036.47;5026979;27;100220;-63
2021/01/11 00:36:06;;;;;;;31.90;20.70;;;-2.30;99.90;;;-4.05;100.00;101032.81;5027270;27;100273;-61
2021/01/11 00:38:32;;;;;;;31.57;20.60;;;-2.20;99.90;;;-4.05;100.00;101030.22;5027376;27;100210;-59
2021/01/11 00:40:59;;;;;;;33.50;21.03;;;-2.20;99.90;;;-4.10;100.00;101034.75;5026344;27;100971;-61
2021/01/11 00:43:26;;;;;;;32.17;20.73;;;-2.30;99.90;;;-4.16;100.00;101035.78;5026128;27;101259;-62
2021/01/11 00:45:52;;;;;;;32.77;20.30;;;-2.10;99.90;;;-4.14;100.00;101028.75;5026203;27;100145;-61
2021/01/11 00:48:19;;;;;;;35.47;21.47;;;-2.20;99.90;;;-4.11;100.00;101027.81;5007307;27;100515;-63
2021/01/11 00:50:45;;;;;;;32.53;21.37;;;-2.30;99.90;;;-4.11;100.00;101027.81;5025907;27;101341;-62
2021/01/11 00:53:12;;;;;;;32.07;21.00;;;-2.30;99.90;;;-4.07;100.00;101026.78;5007278;27;102743;-62
2021/01/11 00:55:39;;;;;;;34.17;21.20;;;-2.30;99.90;;;-4.11;100.00;101027.81;5025783;27;100347;-60
2021/01/11 00:58:12;;;;;;;33.87;20.43;;;-2.40;99.90;;;-4.04;100.00;101027.56;5007271;27;100148;-63
2021/01/11 01:00:45;;;;;;;33.07;19.70;;;-2.30;99.90;;;-4.02;100.00;101032.72;5006617;27;102707;-61
2021/01/11 01:03:16;;;;;;;34.03;20.23;;;-2.30;99.90;;;-3.96;100.00;101034.31;5007630;27;103276;-62
2021/01/11 01:05:43;;;;;;;32.73;20.73;;;-2.30;99.90;;;-4.00;100.00;101033.53;5029464;27;100298;-61
2021/01/11 01:08:09;;;;;;;28.73;19.33;;;-2.10;99.90;;;-3.99;100.00;101030.03;5010812;27;100177;-62
2021/01/11 01:10:35;;;;;;;28.43;19.20;;;-2.10;99.90;;;-3.97;100.00;101023.00;5029409;27;101428;-62
2021/01/11 01:13:02;;;;;;;32.57;19.67;;;-2.30;99.90;;;-3.95;100.00;101036.84;5029935;27;100478;-63
2021/01/11 01:15:29;;;;;;;30.93;20.03;;;-1.30;99.90;;;-3.95;100.00;101038.63;5029638;27;100225;-61
2021/01/11 01:17:55;;;;;;;31.17;19.47;;;-2.20;99.90;;;-3.99;100.00;101037.88;5030619;27;100179;-61
2021/01/11 01:20:22;;;;;;;32.43;19.07;;;-2.20;99.90;;;-3.95;100.00;101041.22;5029682;27;101346;-61
2021/01/11 01:22:50;;;;;;;30.47;19.37;;;-2.20;99.90;;;-3.97;100.00;101037.81;5010407;27;101356;-61
2021/01/11 01:25:17;;;;;;;32.77;20.00;;;-2.30;99.90;;;-3.96;100.00;101042.16;5030087;27;100085;-63
2021/01/11 01:27:44;;;;;;;28.90;19.20;;;-2.10;99.90;;;-3.96;100.00;101036.94;5029998;27;100232;-63
2021/01/11 01:30:12;;;;;;;29.07;17.73;;;-2.20;99.90;;;-3.93;100.00;101040.28;5029733;27;100965;-63
2021/01/11 01:32:41;;;;;;;29.80;19.47;;;-2.20;99.90;;;-3.95;100.00;101036.00;5029383;27;100987;-60
2021/01/11 01:35:08;;;;;;;29.87;19.70;;;-2.30;99.90;;;-3.89;100.00;101038.44;5029968;27;100221;-62
2021/01/11 01:37:35;;;;;;;32.40;18.60;;;-2.30;99.90;;;-3.92;100.00;101039.38;5030743;27;100158;-63
2021/01/11 01:40:01;;;;;;;27.80;17.73;;;-2.30;99.90;;;-3.91;100.00;101043.72;5029111;27;101510;-63
2021/01/11 01:42:28;;;;;;;26.03;17.00;;;-2.20;99.90;;;-3.90;100.00;101041.94;5030051;27;101020;-64
2021/01/11 01:44:54;;;;;;;29.63;18.13;;;-2.30;99.90;;;-3.91;100.00;101032.38;5029614;27;100051;-63
2021/01/11 01:47:21;;;;;;;29.83;18.77;;;-2.20;99.90;;;-3.94;100.00;101028.09;5029416;27;100137;-62
2021/01/11 01:49:49;;;;;;;28.93;18.37;;;-2.10;99.90;;;-3.87;100.00;101018.31;5029173;27;101754;-62
2021/01/11 01:52:16;;;;;;;29.57;18.83;;;-2.30;99.90;;;-3.93;100.00;101016.75;5028632;27;101288;-63
2021/01/11 01:54:43;;;;;;;28.33;17.97;;;-2.20;99.90;;;-3.96;100.00;101005.56;5029423;27;100096;-63
2021/01/11 01:57:09;;;;;;;27.63;17.50;;;-2.30;99.90;;;-3.94;100.00;100995.88;5029708;27;100046;-63
2021/01/11 01:59:39;;;;;;;28.47;18.57;;;-2.20;99.90;;;-3.93;100.00;100989.75;5028444;27;101524;-63
2021/01/11 02:02:05;;;;;;;29.93;17.00;;;-2.20;99.90;;;-3.93;100.00;100979.28;5028335;27;101206;-62
2021/01/11 02:04:32;;;;;;;25.13;16.33;;;-2.20;99.90;;;-3.97;100.00;100975.09;5028770;27;99906;-61
2021/01/11 02:07:10;;;;;;;27.57;17.30;;;-2.30;99.90;;;-3.90;100.00;100982.69;5028235;27;100241;-62
2021/01/11 02:09:44;;;;;;;26.30;17.23;;;-2.30;99.90;;;-3.85;100.00;100993.84;5028611;27;100834;-62
2021/01/11 02:12:18;;;;;;;27.37;17.47;;;-2.30;99.90;;;-3.85;100.00;100985.16;5028072;27;100332;-62
2021/01/11 02:15:00;;;;;;;26.57;16.30;;;-2.40;99.90;;;-3.84;100.00;100992.94;5029005;27;100079;-63
2021/01/11 02:17:33;;;;;;;29.90;18.87;;;-2.30;99.90;;;-3.84;100.00;100997.31;5029593;27;100204;-62
2021/01/11 02:20:43;;;;;;;26.33;17.83;;;-2.30;99.90;;;-3.81;100.00;100991.97;5028758;27;100915;-63
2021/01/11 02:24:07;;;;;;;26.53;16.87;;;-2.20;99.90;;;-3.80;100.00;100989.31;5028312;27;100186;-63
2021/01/11 02:26:55;;;;;;;29.23;17.80;;;-2.40;99.90;;;-3.86;100.00;100999.13;4996247;27;100597;-64
2021/01/11 02:29:48;;;;;;;28.33;18.33;;;-2.40;99.90;;;-3.93;100.00;100995.84;5028728;27;100277;-63
2021/01/11 02:32:15;;;;;;;27.70;17.70;;;-2.40;99.90;;;-3.91;100.00;100996.66;5028108;27;101553;-62
2021/01/11 02:34:44;;;;;;;29.23;17.70;;;-2.40;99.90;;;-3.93;100.00;101000.22;5027825;27;101417;-63
2021/01/11 02:37:10;;;;;;;26.87;16.57;;;-2.50;99.90;;;-4.00;100.00;101008.25;5028870;27;100345;-63
2021/01/11 02:39:37;;;;;;;30.57;18.80;;;-2.50;99.90;;;-4.02;100.00;101002.22;5032606;27;100093;-62
2021/01/11 02:42:04;;;;;;;26.27;16.83;;;-2.50;99.90;;;-4.07;100.00;101025.03;5028048;27;100781;-63
2021/01/11 02:44:30;;;;;;;28.63;17.13;;;-2.20;99.90;;;-4.14;100.00;101020.06;5027820;27;100494;-63
2021/01/11 02:46:58;;;;;;;26.63;17.37;;;-2.50;99.90;;;-4.12;100.00;101020.88;5028821;27;100580;-63
2021/01/11 02:49:27;;;;;;;28.43;18.00;;;-2.50;99.90;;;-4.18;100.00;101019.28;5027970;27;100040;-62
2021/01/11 02:52:06;;;;;;;25.87;16.93;;;-2.50;99.90;;;-4.25;100.00;101014.31;5028195;27;100841;-64
2021/01/11 02:54:38;;;;;;;28.63;18.17;;;-2.80;99.90;;;-4.37;100.00;101019.00;5027919;27;100084;-62
2021/01/11 02:57:15;;;;;;;28.80;17.67;;;-2.70;99.90;;;-4.40;100.00;101016.47;5028149;27;100027;-63
2021/01/11 02:59:47;;;;;;;27.37;17.27;;;-2.80;99.90;;;-4.34;100.00;101007.63;5028103;27;100553;-63
2021/01/11 03:02:17;;;;;;;28.13;18.00;;;-2.80;99.90;;;-4.35;100.00;101008.50;5028045;27;100687;-63
2021/01/11 03:04:44;;;;;;;28.43;18.30;;;-2.90;99.90;;;-4.38;100.00;101003.38;5027385;27;100846;-61
2021/01/11 03:07:12;;;;;;;28.33;17.90;;;-2.90;99.90;;;-4.43;100.00;100992.19;5028278;27;100114;-62
2021/01/11 03:09:40;;;;;;;27.13;17.80;;;-2.70;99.90;;;-4.40;100.00;100986.88;5027710;27;100140;-63
2021/01/11 03:12:07;;;;;;;27.30;17.57;;;-2.90;99.90;;;-4.39;100.00;100988.59;5027006;27;101487;-63
2021/01/11 03:14:33;;;;;;;27.77;17.87;;;-2.90;99.90;;;-4.45;100.00;100986.19;5027651;27;100517;-63
2021/01/11 03:17:00;;;;;;;26.10;17.37;;;-3.00;99.90;;;-4.42;100.00;100980.84;5027631;27;100279;-62
2021/01/11 03:19:27;;;;;;;30.30;17.07;;;-3.00;99.90;;;-4.40;100.00;100982.50;5028332;27;100042;-63
2021/01/11 03:21:54;;;;;;;29.80;17.20;;;-2.90;99.90;;;-4.30;100.00;100975.25;5027203;27;100986;-63
2021/01/11 03:24:22;;;;;;;27.07;17.37;;;-2.90;99.90;;;-4.37;100.00;100968.50;5027397;27;100522;-64
2021/01/11 03:26:50;;;;;;;27.40;17.53;;;-2.80;99.90;;;-4.31;100.00;100970.91;5027075;27;100067;-64
2021/01/11 03:29:18;;;;;;;24.67;14.73;;;-2.90;99.90;;;-4.31;100.00;100959.59;5027984;27;99917;-63
2021/01/11 03:31:46;;;;;;;25.80;15.83;;;-3.00;99.90;;;-4.37;100.00;100958.91;5027474;27;101333;-63
2021/01/11 03:34:13;;;;;;;25.17;16.43;;;-2.90;99.90;;;-4.31;100.00;100962.22;5027573;27;101219;-63
2021/01/11 03:36:42;;;;;;;23.60;15.50;;;-2.90;99.90;;;-4.36;100.00;100958.03;5028059;27;100095;-64
2021/01/11 03:39:11;;;;;;;25.17;14.60;;;-2.80;99.90;;;-4.35;100.00;100949.28;5027934;27;100115;-62
2021/01/11 03:41:39;;;;;;;26.50;15.40;;;-2.80;99.90;;;-4.26;100.00;100942.03;5026974;27;101669;-63
2021/01/11 03:44:07;;;;;;;25.07;16.13;;;-2.80;99.90;;;-4.23;100.00;100944.56;5027752;27;100865;-64
2021/01/11 03:46:34;;;;;;;22.73;16.17;;;-2.80;99.90;;;-4.22;100.00;100941.06;5026984;27;100270;-64
2021/01/11 03:49:00;;;;;;;22.07;14.20;;;-2.70;99.90;;;-4.19;100.00;100941.78;5026973;27;100220;-63
2021/01/11 03:51:27;;;;;;;26.27;15.30;;;-2.80;99.90;;;-4.23;100.00;100936.72;5026434;27;101393;-61
2021/01/11 03:53:54;;;;;;;21.73;14.57;;;-2.70;99.90;;;-4.22;100.00;100930.59;5027266;27;100788;-64
2021/01/11 03:56:22;;;;;;;21.07;14.20;;;-2.70;99.90;;;-4.26;100.00;100934.19;5027239;27;100284;-61
2021/01/11 03:58:49;;;;;;;22.70;14.80;;;-2.70;99.90;;;-4.24;100.00;100925.41;5027407;27;100017;-64
2021/01/11 04:01:15;;;;;;;22.13;14.50;;;-2.80;99.90;;;-4.23;100.00;100924.50;5026928;27;101087;-61
2021/01/11 04:03:42;;;;;;;64.60;17.97;;;-2.70;99.90;;;-4.05;100.00;100934.34;5027327;27;100369;-62
2021/01/11 04:06:09;;;;;;;22.97;14.93;;;-2.80;99.90;;;-4.26;100.00;100927.22;5026563;27;100241;-62
2021/01/11 04:08:36;;;;;;;22.17;13.57;;;-2.80;99.90;;;-4.26;100.00;100932.44;5027172;27;99994;-64
2021/01/11 04:11:03;;;;;;;22.27;13.97;;;-2.90;99.90;;;-4.27;100.00;100930.72;5026629;27;100540;-63
2021/01/11 04:13:29;;;;;;;25.20;15.10;;;-2.70;99.90;;;-4.41;100.00;100922.47;5026916;27;100731;-62
2021/01/11 04:15:57;;;;;;;22.40;15.23;;;-2.80;99.90;;;-4.46;100.00;100927.88;5026861;27;100508;-62
2021/01/11 04:18:24;;;;;;;21.00;13.50;;;-3.00;99.90;;;-4.46;100.00;100921.78;5026945;27;100099;-63
2021/01/11 04:20:50;;;;;;;25.47;14.07;;;-2.80;99.90;;;-4.48;100.00;100924.44;5026812;27;100211;-63
2021/01/11 04:23:16;;;;;;;21.47;13.70;;;-2.90;99.90;;;-4.59;100.00;100918.69;5026589;27;101083;-62
2021/01/11 04:25:43;;;;;;;21.43;14.17;;;-2.90;99.90;;;-4.57;100.00;100926.47;5027004;27;100456;-62
2021/01/11 04:28:10;;;;;;;21.43;13.73;;;-2.90;99.90;;;-4.57;100.00;100926.47;5027101;27;100142;-62
2021/01/11 04:30:36;;;;;;;21.90;13.53;;;-3.00;99.90;;;-4.57;100.00;100921.22;5026380;27;101292;-62
2021/01/11 04:33:03;;;;;;;17.53;11.97;;;-3.00;99.90;;;-4.61;100.00;100922.25;5030633;27;101214;-62
2021/01/11 04:35:30;;;;;;;79.70;18.10;;;-3.00;99.90;;;-4.41;100.00;100915.50;5026526;27;100268;-62
2021/01/11 04:37:57;;;;;;;19.13;12.87;;;-3.10;99.90;;;-4.46;100.00;100921.78;5026904;27;100045;-62
2021/01/11 04:40:24;;;;;;;20.07;12.80;;;-3.20;99.90;;;-4.59;100.00;100917.84;5029278;27;101460;-61
2021/01/11 04:42:56;;;;;;;20.43;14.17;;;-3.10;99.90;;;-4.69;100.00;100919.84;5030092;27;100692;-63
2021/01/11 04:45:24;;;;;;;18.47;12.67;;;-3.00;99.90;;;-4.61;100.00;100917.03;5030064;27;100099;-62
2021/01/11 04:47:53;;;;;;;21.53;13.27;;;-3.10;99.90;;;-4.52;100.00;100912.38;5030086;27;100415;-62
2021/01/11 04:50:20;;;;;;;32.53;13.57;;;-3.10;99.90;;;-4.45;100.00;100900.81;5029710;27;102144;-63
2021/01/11 04:52:47;;;;;;;21.23;13.60;;;-3.10;99.90;;;-4.49;100.00;100896.59;5029779;27;101165;-64
2021/01/11 04:55:14;;;;;;;18.10;11.97;;;-3.10;99.90;;;-4.51;100.00;100894.94;5030030;27;100095;-63
2021/01/11 04:57:51;;;;;;;17.23;11.80;;;-3.00;99.90;;;-4.51;100.00;100894.94;5030693;27;100345;-63
2021/01/11 05:00:23;;;;;;;17.63;12.07;;;-3.00;99.90;;;-4.44;100.00;100886.84;5028746;27;100794;-63
2021/01/11 05:03:00;;;;;;;42.33;13.60;;;-3.10;99.90;;;-4.35;100.00;100890.94;5029982;27;100582;-64
2021/01/11 05:05:27;;;;;;;19.80;12.87;;;-3.00;99.90;;;-4.34;100.00;100892.66;5029870;27;100141;-63
2021/01/11 05:07:54;;;;;;;17.67;11.83;;;-3.00;99.90;;;-4.39;100.00;100892.78;5029931;27;100068;-63
2021/01/11 05:10:23;;;;;;;16.33;11.57;;;-2.90;99.90;;;-4.32;100.00;100889.97;5028903;27;101055;-63
2021/01/11 05:12:57;;;;;;;16.33;10.33;;;-2.90;99.90;;;-4.26;100.00;100902.84;5028914;27;101069;-62
2021/01/11 05:15:27;;;;;;;46.07;13.60;;;-3.00;99.90;;;-4.25;100.00;100907.16;5010297;27;100313;-63
2021/01/11 05:17:54;;;;;;;17.33;10.80;;;-2.90;99.90;;;-4.30;100.00;100912.53;5029671;27;100188;-61
2021/01/11 05:20:23;;;;;;;17.30;10.83;;;-3.10;99.90;;;-4.38;100.00;100911.94;5028496;27;101453;-63
2021/01/11 05:22:52;;;;;;;21.47;11.20;;;-3.00;99.90;;;-4.43;100.00;100912.06;5029268;27;101287;-63
2021/01/11 05:25:21;;;;;;;16.50;11.03;;;-3.00;99.90;;;-4.47;100.00;100902.66;5029128;27;100456;-64
2021/01/11 05:28:04;;;;;;;16.73;10.77;;;-2.80;99.90;;;-4.47;100.00;100896.56;5010771;27;100117;-63
2021/01/11 05:30:34;;;;;;;16.03;10.80;;;-2.90;99.90;;;-4.47;100.00;100899.19;5029175;27;100148;-63
2021/01/11 05:33:00;;;;;;;18.03;11.10;;;-3.00;99.90;;;-4.32;100.00;100905.66;5029590;27;100502;-64
2021/01/11 05:35:27;;;;;;;15.83;10.10;;;-2.90;99.90;;;-4.13;100.00;100896.31;5029208;27;100043;-62
2021/01/11 05:37:55;;;;;;;14.10;10.23;;;-2.80;99.90;;;-4.05;100.00;100889.06;5030256;27;100068;-62
2021/01/11 05:40:24;;;;;;;15.67;10.60;;;-2.80;99.90;;;-4.06;100.00;100892.59;5029302;27;101026;-62
2021/01/11 05:42:53;;;;;;;18.03;11.63;;;-2.70;99.90;;;-3.98;100.00;100890.59;5028833;27;100827;-63
2021/01/11 05:45:22;;;;;;;16.87;11.07;;;-2.60;99.90;;;-3.86;100.00;100889.31;5008938;27;100048;-62
2021/01/11 05:48:06;;;;;;;15.63;10.87;;;-2.60;99.90;;;-3.91;100.00;100897.31;5008386;27;100111;-63
2021/01/11 05:50:38;;;;;;;13.43;9.77;;;-2.30;99.90;;;-3.86;100.00;100892.78;5006954;27;100909;-62
2021/01/11 05:53:14;;;;;;;14.20;10.47;;;-2.30;99.90;;;-3.82;100.00;100890.91;5004030;27;101298;-63
2021/01/11 05:55:41;;;;;;;13.93;8.83;;;-2.30;99.90;;;-3.79;100.00;100891.66;5012772;27;100414;-64
2021/01/11 05:58:08;;;;;;;19.23;10.73;;;-2.90;99.90;;;-3.68;100.00;100886.91;5027044;27;99892;-63
2021/01/11 06:00:36;;;;;;;14.73;10.77;;;-2.20;99.90;;;-3.71;100.00;100883.56;5027396;27;100629;-63
2021/01/11 06:03:05;;;;;;;13.97;9.53;;;-2.20;99.90;;;-3.72;100.00;100885.31;5028544;27;101727;-63
2021/01/11 06:05:33;;;;;;;12.43;9.17;;;-2.10;99.90;;;-3.74;100.00;100881.91;5029372;27;100092;-62
2021/01/11 06:08:02;;;;;;;12.07;9.43;;;-2.00;99.90;;;-3.63;100.00;100882.38;5010604;27;100028;-62
2021/01/11 06:10:29;;;;;;;14.90;10.23;;;-2.10;99.90;;;-3.63;100.00;100878.91;5028570;27;101080;-62
2021/01/11 06:12:55;;;;;;;14.47;9.37;;;-2.00;99.90;;;-3.59;100.00;100885.75;5028578;27;100707;-64
2021/01/11 06:15:25;;;;;;;15.37;10.33;;;-1.90;99.90;;;-3.53;100.00;100888.13;5029337;27;99902;-62
2021/01/11 06:17:53;;;;;;;13.90;9.70;;;-2.10;99.90;;;-3.48;100.00;100874.88;5028906;27;100475;-63
2021/01/11 06:20:23;;;;;;;15.67;10.37;;;-1.80;99.90;;;-3.51;100.00;100880.22;5028622;27;101619;-63
2021/01/11 06:23:25;;;;;;;12.97;8.93;;;-1.90;99.90;;;-3.52;100.00;100883.75;5028817;27;100686;-63
2021/01/11 06:25:52;;;;;;;16.40;10.00;;;-1.70;99.90;;;-3.49;100.00;100886.25;5010149;27;100462;-62
2021/01/11 06:28:31;;;;;;;12.73;8.67;;;-1.80;99.90;;;-3.43;100.00;100891.25;5029177;27;99898;-62
2021/01/11 06:31:11;;;;;;;13.70;9.67;;;-1.80;99.90;;;-3.36;100.00;100882.28;5029131;27;100084;-62
2021/01/11 06:33:40;;;;;;;12.47;8.43;;;-1.80;99.90;;;-3.38;100.00;100881.50;5028783;27;100410;-61
2021/01/11 06:36:23;;;;;;;14.10;9.10;;;-1.70;99.90;;;-3.39;100.00;100882.41;5028019;27;100304;-62
2021/01/11 06:38:50;;;;;;;11.60;8.00;;;-1.70;99.90;;;-3.32;100.00;100882.09;5029667;27;100668;-62
2021/01/11 06:41:18;;;;;;;13.87;8.73;;;-1.70;99.90;;;-3.34;100.00;100883.09;5028450;27;101938;-63
2021/01/11 06:43:48;;;;;;;12.53;8.50;;;-1.70;99.90;;;-3.26;100.00;100883.66;5028937;27;100113;-64
2021/01/11 06:46:43;;;;;;;15.13;8.83;;;-1.60;99.90;;;-3.26;100.00;100876.66;5028579;27;100384;-63
2021/01/11 06:49:24;;;;;;;13.80;8.37;;;-1.60;99.90;;;-3.26;100.00;100883.66;5010664;27;100247;-62
2021/01/11 06:52:06;;;;;;;15.73;9.30;;;-1.60;99.90;;;-3.28;100.00;100885.47;5028282;27;101446;-63
2021/01/11 06:54:38;;;;;;;12.67;8.33;;;-1.20;99.90;;;-3.27;100.00;100895.03;5028290;27;100771;-63
2021/01/11 06:57:11;;;;;;;13.17;8.93;;;-1.60;99.90;;;-3.21;100.00;100892.19;5028936;27;100296;-62
2021/01/11 06:59:38;;;;;;;12.47;7.13;;;-1.60;99.90;;;-3.02;100.00;100892.34;5028661;27;100156;-63
2021/01/11 07:02:23;;;;;;;12.70;8.97;;;-1.50;99.90;;;-3.11;100.00;100893.56;5027596;27;101525;-63
2021/01/11 07:04:51;;;;;;;10.13;7.53;;;-1.50;99.90;;;-3.13;100.00;100891.91;5008305;27;100357;-63
2021/01/11 07:07:21;;;;;;;13.47;7.87;;;-1.40;99.90;;;-3.11;100.00;100892.72;5007520;27;100280;-62
2021/01/11 07:10:06;;;;;;;13.63;9.30;;;-1.30;99.90;;;-3.09;100.00;100891.72;5008514;27;100022;-62
2021/01/11 07:12:32;;;;;;;12.43;8.60;;;-1.40;99.90;;;-3.14;100.00;100892.81;5007004;27;100973;-62
2021/01/11 07:15:03;;;;;;;11.63;8.67;;;-1.40;99.90;;;-3.08;100.00;100892.56;5007863;27;101609;-62
2021/01/11 07:17:41;;;;;;;10.80;6.97;;;-1.30;99.90;;;-3.09;100.00;100883.88;5009097;27;100378;-62
2021/01/11 07:20:10;;;;;;;10.03;7.50;;;-1.30;99.90;;;-3.15;100.00;100881.50;5008197;27;100012;-62
2021/01/11 07:22:40;;;;;;;10.40;7.00;;;-1.40;99.90;;;-3.13;100.00;100884.06;5007492;27;100238;-62
2021/01/11 07:25:17;;;;;;;11.70;8.40;;;-1.30;99.90;;;-3.09;100.00;100885.66;5006442;27;101352;-63
2021/01/11 07:27:44;;;;;;;11.30;7.20;;;-1.30;99.90;;;-3.02;100.00;100887.13;5008249;27;99777;-63
2021/01/11 07:30:12;;;;;;;11.67;8.37;;;-1.20;99.90;;;-2.98;100.00;100881.72;5008220;27;100069;-62
2021/01/11 07:32:38;;;;;;;13.57;8.30;;;-1.20;99.90;;;-2.81;100.00;100886.28;5042558;27;101520;-62
2021/01/11 07:35:06;;;;;;;11.57;7.57;;;-1.20;99.90;;;-2.80;100.00;100880.16;5028022;27;100625;-63
2021/01/11 07:37:35;;;;;;;14.37;8.47;;;-0.30;99.90;;;-2.75;100.00;100872.97;5027002;27;100175;-62
2021/01/11 07:40:07;;;;;;;10.83;8.07;;;-1.00;99.90;;;-2.72;100.00;100870.22;5027687;27;100352;-62
2021/01/11 07:42:33;;;;;;;11.37;7.57;;;-0.60;99.90;;;-2.68;100.00;100870.97;5027509;27;100947;-61
2021/01/11 07:45:10;;;;;;;9.83;6.90;;;-0.60;99.90;;;-2.73;100.00;100870.31;5026934;27;100298;-62
2021/01/11 07:47:37;;;;;;;13.13;7.70;;;-0.70;99.90;;;-2.59;100.00;100867.97;5026877;27;100056;-62
2021/01/11 07:50:05;;;;;;;10.30;7.87;;;-0.50;99.90;;;-2.72;100.00;100869.41;5027749;27;100015;-62
2021/01/11 07:52:32;;;;;;;11.30;8.50;;;-0.70;99.90;;;-2.72;100.00;100867.59;5027891;27;101209;-63
2021/01/11 07:54:59;;;;;;;10.50;7.67;;;-0.60;99.90;;;-2.70;100.00;100864.91;5027446;27;101210;-62
2021/01/11 07:57:28;;;;;;;13.73;9.27;;;-0.70;99.90;;;-2.69;100.00;100869.25;5027716;27;100285;-62
2021/01/11 08:00:05;;;;;;;10.77;8.13;;;-0.50;99.90;;;-2.63;100.00;100858.53;5027603;27;100393;-62
2021/01/11 08:02:39;;;;;;;11.30;7.50;;;-0.60;99.90;;;-2.61;100.00;100860.19;5024144;27;100370;-62
2021/01/11 08:05:20;;;;;;;11.83;8.20;;;-0.40;99.90;;;-2.61;100.00;100864.59;5007683;27;102543;-61
2021/01/11 08:07:51;;;;;;;11.37;7.50;;;-0.60;99.90;;;-2.61;100.00;100868.06;5027766;27;100181;-63
2021/01/11 08:10:23;;;;;;;9.27;6.40;;;-0.50;99.90;;;-2.54;100.00;100871.28;5027848;27;100347;-62
2021/01/11 08:12:50;;;;;;;11.27;8.00;;;-0.50;99.90;;;-2.43;100.00;100873.47;5028152;27;101679;-62
2021/01/11 08:15:19;;;;;;;12.40;8.43;;;-0.40;99.90;;;-2.37;100.00;100870.59;5030369;27;100575;-62
2021/01/11 08:17:46;;;;;;;11.03;7.53;;;-0.40;99.90;;;-2.44;100.00;100866.50;5031237;27;100667;-62
2021/01/11 08:20:23;;;;;;;12.20;8.67;;;-0.30;99.90;;;-2.41;100.00;100869.88;5031522;27;100459;-63
2021/01/11 08:22:50;;;;;;;14.07;8.83;;;-0.30;99.90;;;-2.35;100.00;100863.53;5030646;27;100365;-62
2021/01/11 08:25:17;;;;;;;13.13;8.97;;;-0.30;99.90;;;-2.31;100.00;100868.56;5030511;27;100344;-62
2021/01/11 08:27:46;;;;;;;15.83;9.83;;;-0.20;99.90;;;-2.25;100.00;100870.09;5030076;27;100011;-62
2021/01/11 08:30:20;;;;;;;11.93;8.83;;;-0.20;99.90;;;-2.16;100.00;100856.59;5030899;27;99994;-61
2021/01/11 08:32:47;;;;;;;14.80;8.97;;;-0.20;99.90;;;-2.18;100.00;100854.03;5030275;27;101003;-61
2021/01/11 08:35:16;;;;;;;16.93;10.27;;;-0.10;99.90;;;-2.13;100.00;100855.63;5030603;27;100655;-62
2021/01/11 08:37:43;;;;;;;10.57;7.03;;;-0.20;99.90;;;-2.08;100.00;100856.28;5030998;27;100117;-62
2021/01/11 08:40:12;;;;;;;12.23;8.20;;;1.00;99.90;;;-2.02;100.00;100863.91;5030573;27;100283;-62
2021/01/11 08:42:40;;;;;;;11.33;8.10;;;0.00;99.90;;;-1.98;100.00;100858.44;5015266;27;103178;-62
2021/01/11 08:45:28;;;;;;;11.83;8.67;;;0.00;99.90;;;-2.00;100.00;100860.31;5030422;27;100491;-61
2021/01/11 08:47:59;;;;;;;9.77;7.50;;;0.10;99.90;;;-2.02;100.00;100861.28;5030444;27;99980;-63
2021/01/11 08:50:26;;;;;;;11.23;7.50;;;0.00;99.90;;;-2.00;100.00;100862.06;5031646;27;100148;-61
2021/01/11 08:52:52;;;;;;;10.63;7.43;;;0.40;99.90;;;-1.95;100.00;100863.56;5029481;27;101522;-61
2021/01/11 08:55:19;;;;;;;9.30;7.13;;;0.00;99.90;;;-1.87;100.00;100864.09;5029833;27;100847;-63
2021/01/11 08:57:56;;;;;;;10.70;7.60;;;0.10;99.90;;;-1.88;100.00;100872.03;5031306;27;100132;-62
2021/01/11 09:00:23;;;;;;;11.07;7.53;;;0.20;99.90;;;-1.91;100.00;100854.66;5030176;27;100070;-62
2021/01/11 09:02:50;;;;;;;9.23;6.90;;;0.80;99.90;;;-1.85;100.00;100859.63;5030953;27;101063;-61
2021/01/11 09:05:22;;;;;;;9.17;6.57;;;0.20;99.90;;;-1.70;100.00;100857.25;5029738;27;100863;-62
2021/01/11 09:07:49;;;;;;;10.83;7.57;;;0.50;99.90;;;-1.53;100.00;100852.13;5027482;27;100402;-60
2021/01/11 09:10:24;;;;;;;10.37;7.70;;;0.60;99.90;;;-1.42;100.00;100851.66;5029051;27;99968;-61
2021/01/11 09:12:51;;;;;;;10.47;7.07;;;0.80;99.90;;;-1.40;100.00;100855.06;5008154;27;102768;-61
2021/01/11 09:15:27;;;;;;;10.00;6.93;;;1.10;99.90;;;-1.41;100.00;100859.47;5027136;27;101002;-61
2021/01/11 09:18:06;;;;;;;10.93;7.90;;;1.40;99.90;;;-1.26;100.00;100858.78;5027710;27;99936;-62
2021/01/11 09:20:37;;;;;;;10.57;7.90;;;1.40;99.90;;;-1.05;100.00;100864.81;5028136;27;100664;-63
2021/01/11 09:23:04;;;;;;;13.03;8.00;;;1.80;99.90;;;-1.12;100.00;100880.03;5027490;27;101098;-64
2021/01/11 09:25:32;;;;;;;10.60;8.60;;;1.80;99.90;;;-0.96;100.00;100885.41;5027946;27;100593;-64
2021/01/11 09:27:59;;;;;;;9.47;7.87;;;1.90;99.90;;;-0.87;100.00;100887.63;5027053;27;100225;-63
2021/01/11 09:30:28;;;;;;;8.97;6.70;;;2.20;99.90;;;-0.92;100.00;100888.75;5027165;27;100370;-64
2021/01/11 09:32:54;;;;;;;9.87;8.07;;;2.30;99.90;;;-0.87;100.00;100882.38;5026345;27;101159;-63
2021/01/11 09:35:21;;;;;;;9.03;6.53;;;2.50;99.90;;;-0.73;100.00;100886.94;5007324;27;103377;-64
2021/01/11 09:37:48;;;;;;;10.70;8.90;;;2.60;99.90;;;-0.81;100.00;100889.09;5026406;27;100268;-63
2021/01/11 09:40:17;;;;;;;8.27;6.70;;;2.80;99.90;;;-0.66;100.00;100890.16;5026883;27;100102;-63
2021/01/11 09:42:50;;;;;;;10.83;6.63;;;2.90;99.90;;;-0.44;100.00;100890.84;5026644;27;100081;-62
2021/01/11 09:45:19;;;;;;;7.07;5.47;;;2.40;99.90;;;-0.44;100.00;100883.81;5027063;27;101302;-62
2021/01/11 09:47:46;;;;;;;8.43;6.50;;;3.20;99.70;;;-0.41;100.00;100886.28;5008374;27;100482;-62
2021/01/11 09:50:15;;;;;;;8.43;6.13;;;3.30;99.30;;;-0.45;100.00;100873.34;5027047;27;100157;-62
2021/01/11 09:52:42;;;;;;;7.60;6.77;;;3.50;98.10;;;-0.69;100.00;100874.53;5026889;27;101191;-62
2021/01/11 09:55:10;;;;;;;9.33;6.70;;;3.40;96.20;;;-0.49;100.00;100883.16;5026679;27;100508;-62
2021/01/11 09:57:38;;;;;;;9.10;6.73;;;3.30;97.60;;;-0.51;100.00;100892.06;5027881;27;100618;-60
2021/01/11 10:00:09;;;;;;;12.17;8.27;;;3.20;97.00;;;-0.33;100.00;100888.53;5027505;27;100410;-62
2021/01/11 10:02:38;;;;;;;9.33;7.30;;;3.90;98.20;;;-0.09;100.00;100894.38;5024134;27;100049;-63